Time;durP1;ratioP1;P1;durP2;ratioP2;P2;SDS_P1;SDS_P2;PMS_P1;PMS_P2;Temp;Humidity;BMP_temperature;BMP_pressure;BME280_temperature;BME280_humidity;BME280_pressure;Samples;Min_cycle;Max_cycle;Signal;HPM_P1;HPM_P2
2021/12/21 00:00:20;;;;;;;;;;;;;;;1.05;62.60;95386.19;5013640;28;1037;-46
2021/12/21 00:02:47;;;;;;;;;;;;;;;1.17;62.28;95389.84;5013744;28;1021;-46
2021/12/21 00:05:20;;;;;;;;;;;;;;;1.17;62.00;95392.47;5013397;28;1271;-46
2021/12/21 00:07:48;;;;;;;;;;;;;;;1.05;61.31;95388.00;5013578;28;1053;-46
2021/12/21 00:10:14;;;;;;;;;;;;;;;0.81;61.71;95385.94;5014527;28;1043;-46
2021/12/21 00:12:51;;;;;;;;;;;;;;;0.86;62.25;95393.59;5052188;28;1175;-46
2021/12/21 00:15:25;;;;;;;;;;;;;;;1.02;62.42;95389.03;5057075;28;1228;-45
2021/12/21 00:18:03;;;;;;;;;;;;;;;1.03;62.09;95400.41;5057434;28;1983;-46
2021/12/21 00:20:47;;;;;;;;;;;;;;;1.10;61.74;95399.94;5056999;28;1022;-46
2021/12/21 00:23:34;;;;;;;;;;;;;;;1.06;62.15;95403.69;5057437;28;967;-46
2021/12/21 00:26:05;;;;;;;;;;;;;;;0.93;64.59;95413.28;5056762;28;1420;-46
2021/12/21 00:28:36;;;;;;;;;;;;;;;0.84;63.28;95406.84;5057022;28;1072;-46
2021/12/21 00:31:03;;;;;;;;;;;;;;;0.97;64.13;95404.28;5056556;28;1066;-46
2021/12/21 00:33:29;;;;;;;;;;;;;;;0.95;63.38;95396.47;5057157;28;1040;-46
2021/12/21 00:35:55;;;;;;;;;;;;;;;0.87;62.91;95405.78;5056651;28;934;-45
2021/12/21 00:38:21;;;;;;;;;;;;;;;0.69;63.70;95413.88;5056759;28;1914;-45
2021/12/21 00:40:47;;;;;;;;;;;;;;;0.86;63.57;95409.38;5056646;28;1061;-46
2021/12/21 00:43:13;;;;;;;;;;;;;;;1.00;63.54;95400.59;5056683;28;1034;-46
2021/12/21 00:45:39;;;;;;;;;;;;;;;1.16;62.21;95390.78;5056634;28;997;-46
2021/12/21 00:48:05;;;;;;;;;;;;;;;1.23;61.73;95399.13;5056918;28;977;-46
2021/12/21 00:50:31;;;;;;;;;;;;;;;1.26;60.86;95405.06;5056399;28;1053;-45
2021/12/21 00:52:57;;;;;;;;;;;;;;;1.25;60.78;95405.16;5056798;28;1005;-46
2021/12/21 00:55:23;;;;;;;;;;;;;;;1.24;61.97;95406.94;5056438;28;1005;-46
2021/12/21 00:57:49;;;;;;;;;;;;;;;1.03;62.83;95410.94;5056388;28;1999;-45
2021/12/21 01:00:17;;;;;;;;;;;;;;;1.04;62.78;95416.09;5056060;28;1226;-46
2021/12/21 01:02:43;;;;;;;;;;;;;;;0.93;63.92;95411.53;5056599;28;970;-46
2021/12/21 01:05:19;;;;;;;;;;;;;;;0.80;63.67;95413.25;5056556;28;1045;-46
2021/12/21 01:07:49;;;;;;;;;;;;;;;0.75;63.27;95415.31;5056216;28;1073;-46
2021/12/21 01:15:26;;;;;;;;;;;;;;;0.84;62.10;95414.72;5016515;28;1104;-47
2021/12/21 01:26:04;;;;;;;;;;;;;;;0.83;62.83;95415.66;5015997;28;1933;-46
2021/12/21 01:31:55;;;;;;;;;;;;;;;0.74;63.14;95401.31;5000538;28;1281;-47
2021/12/21 01:37:23;;;;;;;;;;;;;;;0.66;62.69;95400.06;5016079;28;1073;-46
2021/12/21 01:42:30;;;;;;;;;;;;;;;0.41;64.33;95406.00;5015709;28;1018;-46
2021/12/21 01:50:34;;;;;;;;;;;;;;;0.42;63.04;95405.91;5015687;28;1043;-45
2021/12/21 01:53:00;;;;;;;;;;;;;;;0.56;62.75;95411.16;5015608;28;1038;-46
2021/12/21 01:55:26;;;;;;;;;;;;;;;0.54;62.99;95412.19;5015722;28;1018;-46
2021/12/21 01:57:52;;;;;;;;;;;;;;;0.57;62.64;95410.25;5015531;28;1983;-45
2021/12/21 02:00:19;;;;;;;;;;;;;;;0.65;63.41;95408.94;5015520;28;1862;-46
2021/12/21 02:02:45;;;;;;;;;;;;;;;0.78;63.32;95415.13;5015408;28;1062;-46
2021/12/21 02:05:12;;;;;;;;;;;;;;;0.85;63.02;95424.31;5015415;28;1970;-46
2021/12/21 02:07:39;;;;;;;;;;;;;;;0.96;63.06;95427.13;5015559;28;1025;-46
2021/12/21 02:10:06;;;;;;;;;;;;;;;0.98;62.97;95432.28;5015563;28;978;-46
2021/12/21 02:12:32;;;;;;;;;;;;;;;1.02;62.75;95435.56;5047672;28;1218;-46
2021/12/21 02:15:00;;;;;;;;;;;;;;;1.14;63.00;95430.41;5055015;28;1061;-46
2021/12/21 02:20:15;;;;;;;;;;;;;;;1.26;61.44;95430.56;5055120;28;1914;-45
2021/12/21 02:22:48;;;;;;;;;;;;;;;1.14;60.47;95430.41;5055024;28;1045;-46
2021/12/21 02:25:51;;;;;;;;;;;;;;;1.04;61.74;95428.44;5054769;28;1260;-46
2021/12/21 02:28:22;;;;;;;;;;;;;;;1.08;61.14;95430.78;5052314;28;1976;-46
2021/12/21 02:30:52;;;;;;;;;;;;;;;1.07;60.42;95430.88;5054901;28;1060;-45
2021/12/21 02:33:19;;;;;;;;;;;;;;;1.05;60.69;95430.97;5053830;28;1241;-46
2021/12/21 02:35:45;;;;;;;;;;;;;;;1.06;60.54;95432.66;5054725;28;1001;-46
2021/12/21 02:38:11;;;;;;;;;;;;;;;1.06;60.72;95429.16;5054422;28;1910;-46
2021/12/21 02:40:38;;;;;;;;;;;;;;;0.89;61.41;95431.09;5054768;28;1012;-45
2021/12/21 02:43:04;;;;;;;;;;;;;;;0.90;60.92;95434.56;5054410;28;966;-45
2021/12/21 02:45:31;;;;;;;;;;;;;;;0.94;61.23;95418.47;5054710;28;1001;-47
2021/12/21 02:47:57;;;;;;;;;;;;;;;0.98;60.28;95425.22;5054170;28;1119;-46
2021/12/21 02:50:23;;;;;;;;;;;;;;;0.98;60.47;95425.22;5054640;28;1071;-47
2021/12/21 02:52:50;;;;;;;;;;;;;;;0.87;60.75;95422.41;5054063;28;1089;-46
2021/12/21 02:55:17;;;;;;;;;;;;;;;0.85;60.28;95426.09;5054192;28;1045;-46
2021/12/21 02:57:43;;;;;;;;;;;;;;;0.91;59.58;95421.31;5054012;28;1995;-46
2021/12/21 03:00:10;;;;;;;;;;;;;;;0.85;59.05;95423.47;5054339;28;1045;-46
2021/12/21 03:02:36;;;;;;;;;;;;;;;0.79;59.89;95424.69;5054112;28;1013;-46
2021/12/21 03:05:02;;;;;;;;;;;;;;;0.91;58.00;95426.56;5054117;28;1037;-46
2021/12/21 03:10:22;;;;;;;;;;;;;;;0.90;58.67;95430.13;5022973;28;1573;-47
2021/12/21 03:15:23;;;;;;;;;;;;;;;1.02;60.15;95441.69;5014266;28;1078;-46
2021/12/21 03:17:50;;;;;;;;;;;;;;;0.90;61.27;95435.41;5014221;28;1902;-46
2021/12/21 03:20:16;;;;;;;;;;;;;;;0.81;61.47;95435.13;5014140;28;983;-47
2021/12/21 03:22:42;;;;;;;;;;;;;;;0.78;61.73;95433.53;5014216;28;993;-47
2021/12/21 03:25:08;;;;;;;;;;;;;;;0.66;60.87;95439.53;5014152;28;1354;-46
2021/12/21 03:27:35;;;;;;;;;;;;;;;0.68;61.42;95440.28;5014194;28;1021;-47
2021/12/21 03:30:01;;;;;;;;;;;;;;;0.77;61.08;95448.47;5014205;28;1034;-46
2021/12/21 03:32:27;;;;;;;;;;;;;;;0.75;61.29;95455.63;5014136;28;1020;-46
2021/12/21 03:34:53;;;;;;;;;;;;;;;0.74;60.20;95451.31;5013899;28;1034;-47
2021/12/21 03:37:19;;;;;;;;;;;;;;;0.57;60.15;95447.06;5013722;28;1081;-47
2021/12/21 03:39:46;;;;;;;;;;;;;;;0.57;61.30;95462.88;5014027;28;1997;-46
2021/12/21 03:42:13;;;;;;;;;;;;;;;0.59;60.94;95460.16;5013726;28;1096;-45
2021/12/21 03:44:39;;;;;;;;;;;;;;;0.58;60.74;95464.53;5013799;28;975;-46
2021/12/21 03:47:08;;;;;;;;;;;;;;;0.63;61.01;95472.16;5014022;28;1033;-47
2021/12/21 03:52:03;;;;;;;;;;;;;;;0.78;60.11;95473.88;5013933;28;1061;-46
2021/12/21 03:54:30;;;;;;;;;;;;;;;0.81;59.50;95470.19;5013738;28;977;-47
2021/12/21 03:56:55;;;;;;;;;;;;;;;0.92;58.40;95486.19;5013572;28;1101;-45
2021/12/21 03:59:22;;;;;;;;;;;;;;;0.94;58.71;95486.09;5013298;28;2025;-46
2021/12/21 04:01:48;;;;;;;;;;;;;;;1.05;58.53;95502.06;5013506;28;928;-46
2021/12/21 04:04:17;;;;;;;;;;;;;;;1.11;58.60;95514.03;5013361;28;1050;-45
2021/12/21 04:06:44;;;;;;;;;;;;;;;1.18;58.68;95507.44;5013756;28;982;-46
2021/12/21 04:09:10;;;;;;;;;;;;;;;1.09;59.63;95510.63;5013384;28;1046;-47
2021/12/21 04:11:36;;;;;;;;;;;;;;;1.05;59.76;95517.03;5030550;28;1151;-46
2021/12/21 04:14:02;;;;;;;;;;;;;;;0.88;61.17;95508.38;5052921;28;978;-46
2021/12/21 04:16:29;;;;;;;;;;;;;;;0.92;60.58;95514.31;5053374;28;986;-47
2021/12/21 04:18:55;;;;;;;;;;;;;;;0.83;61.42;95520.97;5052763;28;1891;-46
2021/12/21 04:21:21;;;;;;;;;;;;;;;0.91;60.72;95515.22;5053280;28;1097;-47
2021/12/21 04:23:47;;;;;;;;;;;;;;;0.92;61.34;95528.31;5052896;28;1122;-47
2021/12/21 04:26:14;;;;;;;;;;;;;;;0.97;60.74;95530.66;5053327;28;1083;-46
2021/12/21 04:28:41;;;;;;;;;;;;;;;0.90;61.43;95527.56;5052988;28;978;-45
2021/12/21 04:31:09;;;;;;;;;;;;;;;0.80;62.46;95530.81;5052901;28;1128;-45
2021/12/21 04:33:35;;;;;;;;;;;;;;;0.89;61.99;95530.28;5052964;28;1069;-45
2021/12/21 04:36:02;;;;;;;;;;;;;;;0.78;62.26;95525.69;5053112;28;1052;-45
2021/12/21 04:38:33;;;;;;;;;;;;;;;0.76;62.96;95524.94;5052821;28;1945;-46
2021/12/21 04:41:06;;;;;;;;;;;;;;;0.80;61.66;95515.03;5052841;28;1101;-46
2021/12/21 04:43:32;;;;;;;;;;;;;;;0.82;62.37;95521.91;5052906;28;973;-46
2021/12/21 04:45:58;;;;;;;;;;;;;;;0.78;62.88;95517.78;5052747;28;1032;-46
2021/12/21 04:48:25;;;;;;;;;;;;;;;0.75;62.37;95520.59;5052928;28;978;-45
2021/12/21 04:50:51;;;;;;;;;;;;;;;0.81;62.53;95520.22;5052896;28;1057;-46
2021/12/21 04:53:17;;;;;;;;;;;;;;;0.88;62.54;95526.81;5052709;28;1113;-45
2021/12/21 04:55:43;;;;;;;;;;;;;;;0.81;62.43;95533.38;5053022;28;1049;-46
2021/12/21 04:58:10;;;;;;;;;;;;;;;0.70;63.22;95535.78;5056248;28;1914;-47
2021/12/21 05:00:37;;;;;;;;;;;;;;;0.70;63.31;95546.31;5056297;28;1033;-47
2021/12/21 05:03:03;;;;;;;;;;;;;;;0.85;63.47;95545.41;5056295;28;1987;-47
2021/12/21 05:05:29;;;;;;;;;;;;;;;0.72;64.41;95550.56;5056489;28;1013;-46
2021/12/21 05:08:05;;;;;;;;;;;;;;;0.72;63.90;95552.34;5056252;28;1105;-46
2021/12/21 05:10:32;;;;;;;;;;;;;;;0.55;64.84;95564.72;5056207;28;1025;-46
2021/12/21 05:12:58;;;;;;;;;;;;;;;0.56;65.14;95553.25;5017066;28;1218;-45
2021/12/21 05:15:24;;;;;;;;;;;;;;;0.67;64.85;95559.69;5016252;28;1104;-46
2021/12/21 05:17:50;;;;;;;;;;;;;;;0.71;64.55;95555.94;5016530;28;1993;-46
2021/12/21 05:20:16;;;;;;;;;;;;;;;0.75;64.10;95567.97;5016398;28;1032;-45
2021/12/21 05:22:42;;;;;;;;;;;;;;;0.73;64.99;95567.22;5016442;28;1013;-46
2021/12/21 05:25:08;;;;;;;;;;;;;;;0.72;64.53;95570.75;5016015;28;1214;-47
2021/12/21 05:27:34;;;;;;;;;;;;;;;0.73;64.32;95569.84;5016454;28;1129;-46
2021/12/21 05:30:00;;;;;;;;;;;;;;;0.68;64.80;95574.53;5015940;28;1034;-46
2021/12/21 05:32:26;;;;;;;;;;;;;;;0.75;63.39;95581.97;5016450;28;1025;-45
2021/12/21 05:34:52;;;;;;;;;;;;;;;0.86;62.73;95572.59;5015864;28;1034;-46
2021/12/21 05:37:18;;;;;;;;;;;;;;;0.76;62.71;95578.41;5016193;28;1072;-46
2021/12/21 05:39:57;;;;;;;;;;;;;;;0.73;63.51;95575.94;5015814;28;1977;-46
2021/12/21 05:42:23;;;;;;;;;;;;;;;0.62;63.59;95581.00;5015930;28;1047;-45
2021/12/21 05:44:50;;;;;;;;;;;;;;;0.60;64.18;95577.59;5015660;28;1074;-45
2021/12/21 05:47:17;;;;;;;;;;;;;;;0.69;63.52;95579.69;5015893;28;1086;-45
2021/12/21 05:49:43;;;;;;;;;;;;;;;0.59;64.95;95583.81;5015726;28;2067;-46
2021/12/21 05:52:10;;;;;;;;;;;;;;;0.67;64.50;95584.22;5016113;28;1034;-46
2021/12/21 05:54:36;;;;;;;;;;;;;;;0.61;64.45;95583.72;5015533;28;1209;-45
2021/12/21 05:57:02;;;;;;;;;;;;;;;0.66;64.09;95586.94;5015456;28;1198;-45
2021/12/21 05:59:28;;;;;;;;;;;;;;;0.73;59.63;95583.84;5015457;28;1910;-46
2021/12/21 06:01:54;;;;;;;;;;;;;;;0.78;57.93;95589.69;5015791;28;1037;-46
2021/12/21 06:04:21;;;;;;;;;;;;;;;0.85;57.16;95600.69;5015889;28;1013;-46
2021/12/21 06:06:47;;;;;;;;;;;;;;;0.90;57.50;95606.53;5015308;28;953;-45
2021/12/21 06:09:14;;;;;;;;;;;;;;;0.85;57.12;95605.94;5014692;28;974;-46
2021/12/21 06:11:51;;;;;;;;;;;;;;;0.87;56.63;95606.72;5033339;28;1175;-45
2021/12/21 06:14:35;;;;;;;;;;;;;;;0.91;56.78;95613.50;5055123;28;1022;-45
2021/12/21 06:25:35;;;;;;;;;;;;;;;0.91;55.92;95629.31;5054653;28;1231;-45
2021/12/21 06:28:02;;;;;;;;;;;;;;;0.96;56.18;95629.88;5055095;28;1028;-45
2021/12/21 06:30:28;;;;;;;;;;;;;;;0.95;54.91;95636.09;5054509;28;1018;-45
2021/12/21 06:32:54;;;;;;;;;;;;;;;0.97;55.70;95636.84;5054638;28;1010;-45
2021/12/21 06:35:20;;;;;;;;;;;;;;;1.02;55.52;95636.56;5054687;28;974;-46
2021/12/21 06:37:47;;;;;;;;;;;;;;;1.03;55.53;95634.78;5054584;28;1089;-45
2021/12/21 06:40:13;;;;;;;;;;;;;;;1.12;55.42;95644.75;5054260;28;1975;-45
2021/12/21 06:42:39;;;;;;;;;;;;;;;1.15;54.48;95647.22;5054623;28;1028;-46
2021/12/21 06:45:12;;;;;;;;;;;;;;;1.16;54.87;95639.22;5054342;28;1041;-45
2021/12/21 06:53:09;;;;;;;;;;;;;;;1.46;53.47;95654.13;5054408;28;1038;-45
2021/12/21 06:55:35;;;;;;;;;;;;;;;1.43;53.97;95648.19;5054302;28;978;-45
2021/12/21 06:58:01;;;;;;;;;;;;;;;1.48;53.56;95648.75;5054050;28;1910;-45
2021/12/21 07:00:27;;;;;;;;;;;;;;;1.49;53.94;95656.56;5054061;28;1057;-45
2021/12/21 07:02:53;;;;;;;;;;;;;;;1.33;54.43;95664.56;5054055;28;1520;-45
2021/12/21 07:05:19;;;;;;;;;;;;;;;1.44;53.91;95668.31;5054248;28;969;-45
2021/12/21 07:07:45;;;;;;;;;;;;;;;1.50;53.44;95670.56;5054113;28;966;-45
2021/12/21 07:10:20;;;;;;;;;;;;;;;1.44;54.00;95679.72;5054184;28;975;-45
2021/12/21 07:20:35;;;;;;;;;;;;;;;1.41;54.18;95687.81;5013955;28;1018;-45
2021/12/21 07:23:01;;;;;;;;;;;;;;;1.52;54.15;95697.72;5014110;28;971;-47
2021/12/21 07:25:27;;;;;;;;;;;;;;;1.51;53.99;95698.63;5013929;28;1245;-46
2021/12/21 07:27:53;;;;;;;;;;;;;;;1.72;53.93;95704.38;5014013;28;1045;-45
2021/12/21 07:30:19;;;;;;;;;;;;;;;1.74;53.89;95700.72;5014152;28;1082;-46
2021/12/21 07:32:45;;;;;;;;;;;;;;;2.02;53.95;95706.94;5013809;28;1045;-46
2021/12/21 07:35:11;;;;;;;;;;;;;;;2.65;52.27;95707.38;5014040;28;1032;-46
2021/12/21 07:37:37;;;;;;;;;;;;;;;3.03;51.35;95710.16;5013930;28;1037;-45
2021/12/21 07:40:04;;;;;;;;;;;;;;;3.24;51.41;95707.03;5013651;28;1919;-46
2021/12/21 07:42:30;;;;;;;;;;;;;;;3.32;50.93;95715.31;5014002;28;1140;-46
2021/12/21 07:44:56;;;;;;;;;;;;;;;3.46;51.56;95709.09;5013932;28;986;-46
2021/12/21 07:47:22;;;;;;;;;;;;;;;3.49;50.83;95716.78;5013924;28;959;-46
2021/12/21 07:49:48;;;;;;;;;;;;;;;3.66;50.63;95713.00;5013976;28;974;-46
2021/12/21 07:52:14;;;;;;;;;;;;;;;3.70;50.45;95718.00;5013528;28;1033;-47
2021/12/21 07:54:40;;;;;;;;;;;;;;;3.62;51.35;95722.09;5013874;28;1056;-46
2021/12/21 07:57:07;;;;;;;;;;;;;;;3.77;50.67;95722.84;5013377;28;1042;-46
2021/12/21 07:59:33;;;;;;;;;;;;;;;3.99;49.76;95730.16;5013853;28;1907;-46
2021/12/21 08:01:59;;;;;;;;;;;;;;;3.88;50.05;95734.38;5013726;28;1042;-46
2021/12/21 08:04:28;;;;;;;;;;;;;;;3.69;49.15;95733.97;5013624;28;1010;-45
2021/12/21 08:07:02;;;;;;;;;;;;;;;3.47;50.53;95735.41;5013515;28;1101;-46
2021/12/21 08:09:36;;;;;;;;;;;;;;;3.39;50.91;95735.06;5013797;28;1033;-46
2021/12/21 08:12:14;;;;;;;;;;;;;;;3.26;50.91;95732.44;5037418;28;1198;-46
2021/12/21 08:14:40;;;;;;;;;;;;;;;3.12;50.92;95735.97;5053212;28;1144;-45
2021/12/21 08:17:06;;;;;;;;;;;;;;;3.00;51.68;95735.91;5052838;28;2003;-47
2021/12/21 08:19:32;;;;;;;;;;;;;;;3.00;50.98;95743.84;5053248;28;1918;-45
2021/12/21 08:21:59;;;;;;;;;;;;;;;3.10;50.43;95742.31;5052802;28;1042;-46
2021/12/21 08:27:46;;;;;;;;;;;;;;;3.25;50.57;95740.44;3622387;28;2317;-47
2021/12/21 08:30:12;;;;;;;;;;;;;;;3.38;50.37;95745.75;5053247;28;975;-46
2021/12/21 08:32:38;;;;;;;;;;;;;;;3.40;49.62;95741.22;5056291;28;1046;-45
2021/12/21 08:35:05;;;;;;;;;;;;;;;3.24;49.66;95744.88;5057205;28;1052;-46
2021/12/21 08:37:31;;;;;;;;;;;;;;;3.31;50.04;95747.97;5056969;28;1096;-45
2021/12/21 08:39:57;;;;;;;;;;;;;;;3.55;48.21;95753.41;5056910;28;1990;-46
2021/12/21 08:42:25;;;;;;;;;;;;;;;3.78;48.22;95758.94;5056584;28;1030;-45
2021/12/21 08:44:51;;;;;;;;;;;;;;;3.81;48.25;95769.28;5056946;28;1077;-46
2021/12/21 08:47:17;;;;;;;;;;;;;;;4.04;48.28;95779.16;5056847;28;1018;-46
2021/12/21 08:49:43;;;;;;;;;;;;;;;4.26;47.87;95775.03;5056857;28;1019;-47
2021/12/21 08:52:09;;;;;;;;;;;;;;;3.86;48.26;95775.13;5056608;28;1001;-46
2021/12/21 08:54:35;;;;;;;;;;;;;;;3.76;49.09;95774.06;5056415;28;1066;-45
2021/12/21 08:57:01;;;;;;;;;;;;;;;3.38;50.35;95775.69;5056398;28;1002;-46
2021/12/21 08:59:27;;;;;;;;;;;;;;;3.46;50.81;95770.72;5056509;28;1999;-47
2021/12/21 09:01:54;;;;;;;;;;;;;;;3.63;49.78;95772.25;5056448;28;1129;-47
2021/12/21 09:04:22;;;;;;;;;;;;;;;3.67;48.65;95775.53;5056363;28;1044;-47
2021/12/21 09:06:48;;;;;;;;;;;;;;;3.74;48.06;95775.94;5056431;28;1025;-46
2021/12/21 09:09:14;;;;;;;;;;;;;;;3.99;48.30;95778.63;5056346;28;1024;-45
2021/12/21 09:11:40;;;;;;;;;;;;;;;4.96;45.50;95777.09;5038371;28;1170;-46
2021/12/21 09:14:06;;;;;;;;;;;;;;;6.26;42.16;95781.56;5016299;28;1912;-46
2021/12/21 09:16:32;;;;;;;;;;;;;;;6.55;41.09;95770.47;5016752;28;979;-46
2021/12/21 09:18:58;;;;;;;;;;;;;;;7.28;40.05;95776.13;5016340;28;1997;-46
2021/12/21 09:21:24;;;;;;;;;;;;;;;9.07;36.03;95762.66;5016691;28;1024;-47
2021/12/21 09:23:50;;;;;;;;;;;;;;;11.20;31.40;95751.75;5016010;28;1200;-47
2021/12/21 09:26:16;;;;;;;;;;;;;;;14.44;27.85;95754.72;5016267;28;1033;-46
2021/12/21 09:28:42;;;;;;;;;;;;;;;16.53;24.07;95747.94;5015997;28;1237;-46
2021/12/21 09:31:08;;;;;;;;;;;;;;;17.65;22.93;95742.41;5016573;28;1029;-45
2021/12/21 09:33:34;;;;;;;;;;;;;;;18.90;21.00;95748.38;5016003;28;1105;-46
2021/12/21 09:36:00;;;;;;;;;;;;;;;19.04;21.57;95743.88;5016076;28;946;-45
2021/12/21 09:38:26;;;;;;;;;;;;;;;18.66;20.56;95738.78;5015683;28;1997;-46
2021/12/21 09:40:54;;;;;;;;;;;;;;;17.90;21.34;95747.47;5016178;28;982;-46
2021/12/21 09:43:21;;;;;;;;;;;;;;;14.15;25.00;95751.72;5015944;28;1022;-47
2021/12/21 09:45:47;;;;;;;;;;;;;;;13.02;26.00;95750.31;5016061;28;1034;-46
2021/12/21 09:48:13;;;;;;;;;;;;;;;13.98;26.14;95753.56;5015899;28;1892;-45
2021/12/21 09:50:39;;;;;;;;;;;;;;;11.28;28.59;95754.50;5015652;28;1970;-45
2021/12/21 09:53:05;;;;;;;;;;;;;;;18.03;21.53;95744.91;5016084;28;1042;-46
2021/12/21 09:55:31;;;;;;;;;;;;;;;21.58;18.72;95754.00;5015767;28;953;-46
2021/12/21 09:57:57;;;;;;;;;;;;;;;22.94;18.06;95751.06;5015970;28;978;-47
2021/12/21 10:00:29;;;;;;;;;;;;;;;22.92;17.30;95755.91;5015665;28;1017;-46
2021/12/21 10:03:02;;;;;;;;;;;;;;;21.78;17.16;95750.41;5015573;28;1077;-46
2021/12/21 10:05:28;;;;;;;;;;;;;;;21.21;17.30;95748.25;5015433;28;1072;-46
2021/12/21 10:07:58;;;;;;;;;;;;;;;20.71;18.36;95745.19;5015438;28;1017;-46
2021/12/21 10:10:24;;;;;;;;;;;;;;;18.04;20.01;95746.59;5015291;28;1058;-47
2021/12/21 10:12:50;;;;;;;;;;;;;;;14.90;22.96;95738.00;5052283;28;1222;-47
2021/12/21 10:15:16;;;;;;;;;;;;;;;12.35;26.16;95726.00;5055218;28;1040;-46
2021/12/21 10:17:52;;;;;;;;;;;;;;;11.98;27.74;95718.19;5055078;28;1038;-46
2021/12/21 10:20:36;;;;;;;;;;;;;;;10.48;27.91;95716.75;5054798;28;1906;-46
2021/12/21 10:23:11;;;;;;;;;;;;;;;8.47;30.77;95709.28;5054734;28;1054;-46
2021/12/21 10:26:00;;;;;;;;;;;;;;;8.28;30.30;95717.16;5054971;28;1025;-46
2021/12/21 10:28:37;;;;;;;;;;;;;;;6.37;32.62;95720.47;5046605;28;1337;-46
2021/12/21 10:31:05;;;;;;;;;;;;;;;5.46;34.79;95715.97;5054525;28;1029;-45
2021/12/21 10:33:31;;;;;;;;;;;;;;;4.78;37.88;95717.47;5054766;28;973;-45
2021/12/21 10:35:58;;;;;;;;;;;;;;;4.56;38.03;95712.91;5054659;28;1017;-45
2021/12/21 10:38:25;;;;;;;;;;;;;;;4.17;39.14;95712.97;5054475;28;1910;-45
2021/12/21 10:40:51;;;;;;;;;;;;;;;4.09;38.69;95713.50;5054664;28;1013;-44
2021/12/21 10:43:17;;;;;;;;;;;;;;;3.91;39.64;95718.31;5054547;28;946;-44
2021/12/21 10:45:44;;;;;;;;;;;;;;;3.79;39.63;95723.59;5054230;28;966;-44
2021/12/21 10:48:15;;;;;;;;;;;;;;;3.75;40.94;95727.41;5054642;28;1030;-45
2021/12/21 10:50:43;;;;;;;;;;;;;;;3.71;40.94;95724.94;5054517;28;1018;-45
2021/12/21 10:53:14;;;;;;;;;;;;;;;3.80;39.86;95714.72;5054262;28;1024;-45
2021/12/21 10:55:40;;;;;;;;;;;;;;;3.84;39.30;95726.78;5054156;28;1032;-44
2021/12/21 10:58:26;;;;;;;;;;;;;;;5.71;38.13;95728.22;5054351;28;1913;-44
2021/12/21 11:00:54;;;;;;;;;;;;;;;12.30;27.22;95726.44;5054310;28;978;-44
2021/12/21 11:03:44;;;;;;;;;;;;;;;12.33;27.18;95730.69;5054482;28;974;-45
2021/12/21 11:06:12;;;;;;;;;;;;;;;8.36;31.05;95728.00;5054288;28;985;-45
2021/12/21 11:08:39;;;;;;;;;;;;;;;7.67;32.88;95731.25;5053907;28;1970;-44
2021/12/21 11:11:10;;;;;;;;;;;;;;;6.87;34.47;95721.84;5045388;28;1194;-45
2021/12/21 11:13:37;;;;;;;;;;;;;;;5.95;35.20;95720.19;5014392;28;1877;-45
2021/12/21 11:16:06;;;;;;;;;;;;;;;5.32;37.09;95718.81;5014050;28;918;-45
2021/12/21 11:18:36;;;;;;;;;;;;;;;5.15;38.18;95720.91;5014211;28;1943;-45
2021/12/21 11:21:05;;;;;;;;;;;;;;;5.93;36.02;95719.44;5013958;28;1885;-45
2021/12/21 11:23:31;;;;;;;;;;;;;;;6.13;35.72;95714.41;5014400;28;1085;-44
2021/12/21 11:25:58;;;;;;;;;;;;;;;5.18;36.96;95715.41;5014220;28;977;-44
2021/12/21 11:28:29;;;;;;;;;;;;;;;4.75;37.27;95710.59;5013908;28;1268;-44
2021/12/21 11:30:59;;;;;;;;;;;;;;;5.18;37.33;95709.22;5014124;28;1040;-44
2021/12/21 11:33:27;;;;;;;;;;;;;;;5.89;35.35;95709.19;5014123;28;1029;-45
2021/12/21 11:38:38;;;;;;;;;;;;;;;6.10;35.23;95702.25;5014153;28;1914;-45
2021/12/21 11:41:05;;;;;;;;;;;;;;;5.59;36.49;95707.94;5013688;28;1041;-45
2021/12/21 11:43:47;;;;;;;;;;;;;;;5.37;36.36;95706.91;5014003;28;1013;-44
2021/12/21 11:46:15;;;;;;;;;;;;;;;4.80;37.21;95711.13;5013930;28;1066;-44
2021/12/21 11:48:48;;;;;;;;;;;;;;;5.19;36.55;95709.13;5014075;28;1045;-44
2021/12/21 11:51:14;;;;;;;;;;;;;;;5.47;36.31;95699.09;5014196;28;958;-45
2021/12/21 11:53:40;;;;;;;;;;;;;;;5.47;36.90;95699.94;5013969;28;1123;-45
2021/12/21 11:56:08;;;;;;;;;;;;;;;4.95;36.85;95695.91;5013808;28;1044;-44
2021/12/21 11:58:38;;;;;;;;;;;;;;;4.49;38.20;95705.38;5013815;28;2013;-44
2021/12/21 12:01:25;;;;;;;;;;;;;;;4.34;38.55;95703.84;5013335;28;1093;-44
2021/12/21 12:04:03;;;;;;;;;;;;;;;4.36;38.66;95699.28;5013459;28;1111;-45
2021/12/21 12:06:42;;;;;;;;;;;;;;;4.27;38.83;95700.78;5012574;28;1058;-45
2021/12/21 12:09:08;;;;;;;;;;;;;;;4.41;37.90;95685.72;5013563;28;1050;-43
2021/12/21 12:11:35;;;;;;;;;;;;;;;4.84;38.33;95688.75;5029532;28;1159;-44
2021/12/21 12:14:07;;;;;;;;;;;;;;;5.07;38.06;95696.81;5053061;28;1041;-44
2021/12/21 12:16:54;;;;;;;;;;;;;;;5.01;37.70;95691.97;5053197;28;1041;-44
2021/12/21 12:19:33;;;;;;;;;;;;;;;4.97;35.87;95694.00;5053000;28;1909;-45
2021/12/21 12:22:00;;;;;;;;;;;;;;;4.78;37.04;95694.50;5052744;28;990;-44
2021/12/21 12:24:32;;;;;;;;;;;;;;;4.57;37.05;95699.56;5053246;28;1036;-44
2021/12/21 12:27:09;;;;;;;;;;;;;;;4.35;38.50;95710.00;5052974;28;1317;-45
2021/12/21 12:29:43;;;;;;;;;;;;;;;4.33;38.39;95704.81;5053094;28;1029;-45
2021/12/21 12:32:11;;;;;;;;;;;;;;;4.21;39.06;95706.53;5052776;28;1053;-45
2021/12/21 12:34:39;;;;;;;;;;;;;;;4.11;39.92;95714.25;5053128;28;986;-44
2021/12/21 12:37:19;;;;;;;;;;;;;;;4.01;39.77;95715.03;5052835;28;1045;-44
2021/12/21 12:39:46;;;;;;;;;;;;;;;3.80;39.11;95712.06;5052763;28;1906;-44
2021/12/21 12:42:16;;;;;;;;;;;;;;;3.56;40.07;95710.13;5053051;28;1128;-44
2021/12/21 12:44:43;;;;;;;;;;;;;;;3.48;41.05;95718.59;5052940;28;1019;-44
2021/12/21 12:47:10;;;;;;;;;;;;;;;3.51;41.03;95725.50;5052922;28;1048;-45
2021/12/21 12:49:40;;;;;;;;;;;;;;;3.54;41.59;95725.25;5053021;28;1038;-44
2021/12/21 12:52:06;;;;;;;;;;;;;;;3.38;42.29;95730.75;5052461;28;1046;-44
2021/12/21 12:54:43;;;;;;;;;;;;;;;3.25;42.37;95738.66;5052748;28;1464;-45
2021/12/21 12:57:09;;;;;;;;;;;;;;;3.11;42.97;95738.69;5052698;28;965;-44
2021/12/21 12:59:35;;;;;;;;;;;;;;;3.02;42.07;95734.03;5052578;28;1979;-44
2021/12/21 13:02:06;;;;;;;;;;;;;;;2.98;42.57;95740.44;5052800;28;986;-44
2021/12/21 13:04:33;;;;;;;;;;;;;;;2.95;42.15;95743.31;5052997;28;962;-48
2021/12/21 13:06:59;;;;;;;;;;;;;;;2.87;41.95;95743.81;5052468;28;978;-48
2021/12/21 13:09:25;;;;;;;;;;;;;;;2.74;43.00;95747.22;5052640;28;1042;-47
2021/12/21 13:11:51;;;;;;;;;;;;;;;2.50;43.45;95747.03;5032128;28;1178;-46
2021/12/21 13:14:17;;;;;;;;;;;;;;;2.39;43.97;95744.22;5012950;28;986;-46
2021/12/21 13:16:46;;;;;;;;;;;;;;;2.36;43.70;95754.97;5013061;28;1082;-47
2021/12/21 13:19:13;;;;;;;;;;;;;;;2.50;43.08;95749.66;5016562;28;1910;-46
2021/12/21 13:22:01;;;;;;;;;;;;;;;2.38;43.55;95750.44;5016203;28;954;-47
2021/12/21 13:24:36;;;;;;;;;;;;;;;2.26;44.09;95759.13;5016649;28;966;-47
2021/12/21 13:27:08;;;;;;;;;;;;;;;2.24;43.62;95755.72;5016286;28;1130;-48
2021/12/21 13:29:35;;;;;;;;;;;;;;;2.40;43.45;95766.19;5016504;28;1009;-47
2021/12/21 13:32:04;;;;;;;;;;;;;;;2.38;43.70;95766.25;5016286;28;1053;-46
2021/12/21 13:34:30;;;;;;;;;;;;;;;2.47;42.86;95760.41;5016437;28;1150;-46
2021/12/21 13:36:58;;;;;;;;;;;;;;;2.56;42.24;95766.03;5015760;28;1058;-47
2021/12/21 13:39:24;;;;;;;;;;;;;;;2.51;42.61;95767.19;5016331;28;1990;-47
2021/12/21 13:41:51;;;;;;;;;;;;;;;2.50;43.24;95770.78;5016086;28;1056;-47
2021/12/21 13:44:20;;;;;;;;;;;;;;;2.53;42.66;95767.09;5016044;28;1065;-47
2021/12/21 13:46:46;;;;;;;;;;;;;;;2.53;43.98;95769.75;5015961;28;1045;-47
2021/12/21 13:49:13;;;;;;;;;;;;;;;2.61;43.09;95777.16;5016098;28;986;-47
2021/12/21 13:51:46;;;;;;;;;;;;;;;2.58;42.84;95772.06;5015791;28;1022;-47
2021/12/21 13:54:15;;;;;;;;;;;;;;;2.60;43.23;95776.34;5015962;28;1041;-46
2021/12/21 13:56:41;;;;;;;;;;;;;;;2.51;44.09;95772.47;5015980;28;1180;-46
2021/12/21 13:59:09;;;;;;;;;;;;;;;2.53;43.08;95775.03;5015660;28;1992;-46
2021/12/21 14:01:36;;;;;;;;;;;;;;;2.50;44.50;95777.84;5015675;28;1028;-46
2021/12/21 14:04:07;;;;;;;;;;;;;;;2.45;44.47;95775.50;5015687;28;1002;-47
2021/12/21 14:06:34;;;;;;;;;;;;;;;2.54;44.43;95781.97;5015827;28;1030;-46
2021/12/21 14:09:01;;;;;;;;;;;;;;;2.37;45.15;95782.19;5015330;28;1026;-46
2021/12/21 14:11:27;;;;;;;;;;;;;;;2.26;47.13;95783.72;5029492;28;1167;-46
2021/12/21 14:13:53;;;;;;;;;;;;;;;2.21;45.56;95784.94;5055042;28;1013;-47
2021/12/21 14:16:20;;;;;;;;;;;;;;;2.36;45.86;95789.28;5055222;28;1041;-46
2021/12/21 14:18:48;;;;;;;;;;;;;;;2.31;45.39;95791.34;5055005;28;1987;-47